createdAt,value
2023-04-17T00:02:01.693Z,14.90
2023-04-17T00:04:28.889Z,17.60
2023-04-17T00:06:56.050Z,23.00
2023-04-17T00:09:23.096Z,21.17
2023-04-17T00:11:50.048Z,16.60
2023-04-17T00:14:17.008Z,18.15
2023-04-17T00:16:43.913Z,17.77
2023-04-17T00:19:11.057Z,16.90
2023-04-17T00:21:38.437Z,19.75
2023-04-17T00:24:05.498Z,16.88
2023-04-17T00:26:34.601Z,19.73
2023-04-17T00:29:01.829Z,15.30
2023-04-17T00:31:30.918Z,18.48
2023-04-17T00:33:59.007Z,14.02
2023-04-17T00:36:27.365Z,22.23
2023-04-17T00:38:54.369Z,19.70
2023-04-17T00:41:21.422Z,18.10
2023-04-17T00:43:48.467Z,16.30
2023-04-17T00:46:15.671Z,15.55
2023-04-17T00:48:44.137Z,15.48
2023-04-17T00:51:11.274Z,15.77
2023-04-17T00:53:38.269Z,22.17
2023-04-17T00:56:06.058Z,15.15
2023-04-17T00:58:33.356Z,20.52
2023-04-17T01:01:00.561Z,19.55
2023-04-17T01:03:29.724Z,17.58
2023-04-17T01:05:57.534Z,15.30
2023-04-17T01:08:24.484Z,20.33
2023-04-17T01:10:52.419Z,20.80
2023-04-17T01:13:19.530Z,17.48
2023-04-17T01:15:47.160Z,19.60
2023-04-17T01:18:14.329Z,13.45
2023-04-17T01:20:41.373Z,20.13
2023-04-17T01:23:08.319Z,19.88
2023-04-17T01:25:36.154Z,23.77
2023-04-17T01:28:03.284Z,17.58
2023-04-17T01:30:30.409Z,17.13
2023-04-17T01:33:03.351Z,18.88
2023-04-17T01:35:30.399Z,18.08
2023-04-17T01:37:58.042Z,18.30
2023-04-17T01:40:25.116Z,17.30
2023-04-17T01:42:52.078Z,16.10
2023-04-17T01:45:19.139Z,24.98
2023-04-17T01:47:46.169Z,18.65
2023-04-17T01:50:13.638Z,16.38
2023-04-17T01:52:41.234Z,16.42
2023-04-17T01:55:09.420Z,14.55
2023-04-17T01:57:36.817Z,19.42
2023-04-17T02:00:09.339Z,17.67
2023-04-17T02:02:45.676Z,15.10
2023-04-17T02:05:12.926Z,16.83
2023-04-17T02:07:39.970Z,13.55
2023-04-17T02:10:07.636Z,15.38
2023-04-17T02:12:37.429Z,19.83
2023-04-17T02:15:05.884Z,14.35
2023-04-17T02:17:34.563Z,14.80
2023-04-17T02:20:02.960Z,12.85
2023-04-17T02:22:31.760Z,17.52
2023-04-17T02:24:58.861Z,15.93
2023-04-17T02:27:27.135Z,12.43
2023-04-17T02:29:54.237Z,17.02
2023-04-17T02:32:21.394Z,18.15
2023-04-17T02:34:48.422Z,13.38
2023-04-17T02:37:17.291Z,16.58
2023-04-17T02:39:44.400Z,16.55
2023-04-17T02:42:13.085Z,16.63
2023-04-17T02:44:41.472Z,13.55
2023-04-17T02:47:08.701Z,12.35
2023-04-17T02:49:35.721Z,13.10
2023-04-17T02:52:02.634Z,16.35
2023-04-17T02:54:29.613Z,19.25
2023-04-17T02:56:59.442Z,16.00
2023-04-17T02:59:27.058Z,16.08
2023-04-17T03:01:54.461Z,16.10
2023-04-17T03:04:22.219Z,13.65
2023-04-17T03:06:49.421Z,15.52
2023-04-17T03:09:18.282Z,16.55
2023-04-17T03:11:47.129Z,17.77
2023-04-17T03:14:14.066Z,13.25
2023-04-17T03:16:41.084Z,13.52
2023-04-17T03:19:08.606Z,17.83
2023-04-17T03:21:36.393Z,16.15
2023-04-17T03:24:03.853Z,14.63
2023-04-17T03:26:31.432Z,15.43
2023-04-17T03:29:03.074Z,23.23
2023-04-17T03:31:30.148Z,15.27
2023-04-17T03:33:57.341Z,15.00
2023-04-17T03:36:24.655Z,16.15
2023-04-17T03:38:52.486Z,15.48
2023-04-17T03:41:19.502Z,14.98
2023-04-17T03:43:47.931Z,22.40
2023-04-17T03:46:15.003Z,18.15
2023-04-17T03:48:42.835Z,15.25
2023-04-17T03:51:09.761Z,19.08
2023-04-17T03:53:37.807Z,15.77
2023-04-17T03:56:08.655Z,14.15
2023-04-17T03:58:39.006Z,16.02
2023-04-17T04:01:10.733Z,18.45
2023-04-17T04:03:42.520Z,14.13
2023-04-17T04:06:10.101Z,19.02
2023-04-17T04:08:37.213Z,13.75
2023-04-17T04:11:04.341Z,19.92
2023-04-17T04:13:35.803Z,15.43
2023-04-17T04:16:03.967Z,15.43
2023-04-17T04:18:34.806Z,15.00
2023-04-17T04:21:02.639Z,15.02
2023-04-17T04:23:33.904Z,25.05
2023-04-17T04:26:01.975Z,17.20
2023-04-17T04:28:47.567Z,17.52
2023-04-17T04:31:20.758Z,15.70
2023-04-17T04:33:47.907Z,18.17
2023-04-17T04:36:20.278Z,17.35
2023-04-17T04:38:51.807Z,19.42
2023-04-17T04:41:26.853Z,22.90
2023-04-17T04:43:54.652Z,16.45
2023-04-17T04:46:21.732Z,16.85
2023-04-17T04:48:49.589Z,15.88
2023-04-17T04:51:18.986Z,16.05
2023-04-17T04:53:47.714Z,17.02
2023-04-17T04:56:16.029Z,16.48
2023-04-17T04:58:45.448Z,15.75
2023-04-17T05:01:13.168Z,16.08
2023-04-17T05:03:47.584Z,17.27
2023-04-17T05:06:21.380Z,15.10
2023-04-17T05:08:53.727Z,19.50
2023-04-17T05:11:20.766Z,16.42
2023-04-17T05:13:48.495Z,21.15
2023-04-17T05:16:20.725Z,17.25
2023-04-17T05:18:48.342Z,18.02
2023-04-17T05:21:20.053Z,19.30
2023-04-17T05:23:49.866Z,18.17
2023-04-17T05:26:17.131Z,16.80
2023-04-17T05:28:45.445Z,16.05
2023-04-17T05:31:18.240Z,14.93
2023-04-17T05:33:46.635Z,18.05
2023-04-17T05:36:14.115Z,13.65
2023-04-17T05:38:42.994Z,14.27
2023-04-17T05:41:11.129Z,17.65
2023-04-17T05:43:38.440Z,18.63
2023-04-17T05:46:06.749Z,15.02
2023-04-17T05:48:34.221Z,16.67
2023-04-17T05:51:03.788Z,12.43
2023-04-17T05:53:32.363Z,13.05
2023-04-17T05:56:00.198Z,13.77
2023-04-17T05:58:27.461Z,12.43
2023-04-17T06:00:56.967Z,16.10
2023-04-17T06:03:26.811Z,13.55
2023-04-17T06:06:04.332Z,14.80
2023-04-17T06:08:31.765Z,14.02
2023-04-17T06:10:58.801Z,15.43
2023-04-17T06:13:26.232Z,18.20
2023-04-17T06:15:54.253Z,20.17
2023-04-17T06:18:21.329Z,14.00
2023-04-17T06:20:48.320Z,17.15
2023-04-17T06:23:15.504Z,16.15
2023-04-17T06:25:42.740Z,14.05
2023-04-17T06:28:10.455Z,12.70
2023-04-17T06:30:38.006Z,16.30
2023-04-17T06:33:06.428Z,15.10
2023-04-17T06:35:35.168Z,12.50
2023-04-17T06:38:12.207Z,15.98
2023-04-17T06:40:39.353Z,12.48
2023-04-17T06:43:07.260Z,15.18
2023-04-17T06:45:38.414Z,11.10
2023-04-17T06:48:06.775Z,15.57
2023-04-17T06:50:33.853Z,11.65
2023-04-17T06:53:01.011Z,11.07
2023-04-17T06:55:28.055Z,12.43
2023-04-17T06:57:54.997Z,10.63
2023-04-17T07:00:22.323Z,15.40
2023-04-17T07:02:49.432Z,12.27
2023-04-17T07:05:16.760Z,9.15
2023-04-17T07:07:43.730Z,8.13
2023-04-17T07:10:11.127Z,6.57
2023-04-17T07:12:38.334Z,6.78
2023-04-17T07:15:05.932Z,9.00
2023-04-17T07:17:33.034Z,8.13
2023-04-17T07:20:00.176Z,8.65
2023-04-17T07:22:27.507Z,8.65
2023-04-17T07:24:54.665Z,9.07
2023-04-17T07:27:22.142Z,5.55
2023-04-17T07:29:54.536Z,7.25
2023-04-17T07:32:22.423Z,6.53
2023-04-17T07:34:49.472Z,6.32
2023-04-17T07:37:16.786Z,7.03
2023-04-17T07:39:43.824Z,12.80
2023-04-17T07:42:11.481Z,7.32
2023-04-17T07:44:39.100Z,9.13
2023-04-17T07:47:06.617Z,8.07
2023-04-17T07:49:34.379Z,8.32
2023-04-17T07:52:01.465Z,7.97
2023-04-17T07:54:28.433Z,6.93
2023-04-17T07:56:58.389Z,9.65
2023-04-17T07:59:25.474Z,7.38
2023-04-17T08:01:52.747Z,7.47
2023-04-17T08:04:20.116Z,9.88
2023-04-17T08:06:47.365Z,8.55
2023-04-17T08:09:14.494Z,11.23
2023-04-17T08:11:56.328Z,10.52
2023-04-17T08:14:24.431Z,11.65
2023-04-17T08:16:51.550Z,7.90
2023-04-17T08:19:18.756Z,7.90
2023-04-17T08:21:48.662Z,23.30
2023-04-17T08:24:18.701Z,9.52
2023-04-17T08:26:47.815Z,6.70
2023-04-17T08:29:15.327Z,10.77
2023-04-17T08:31:42.846Z,10.57
2023-04-17T08:34:15.061Z,7.95
2023-04-17T08:36:43.324Z,8.15
2023-04-17T08:39:12.342Z,9.65
2023-04-17T08:41:58.523Z,8.20
2023-04-17T08:44:25.820Z,9.77
2023-04-17T08:46:52.984Z,10.38
2023-04-17T08:49:19.956Z,10.55
2023-04-17T08:51:47.291Z,8.55
2023-04-17T08:54:14.354Z,8.05
2023-04-17T08:56:41.364Z,8.15
2023-04-17T08:59:08.359Z,9.13
2023-04-17T09:01:35.880Z,11.85
2023-04-17T09:04:03.243Z,8.63
2023-04-17T09:06:30.844Z,10.68
2023-04-17T09:08:59.214Z,16.77
2023-04-17T09:11:26.584Z,8.40
2023-04-17T09:13:54.321Z,6.95
2023-04-17T09:16:21.502Z,8.77
2023-04-17T09:18:48.541Z,6.50
2023-04-17T09:21:17.276Z,9.93
2023-04-17T09:23:52.206Z,9.07
2023-04-17T09:26:23.938Z,7.20
2023-04-17T09:29:14.130Z,10.65
2023-04-17T09:31:42.951Z,8.45
2023-04-17T09:34:13.463Z,6.60
2023-04-17T09:36:42.168Z,9.23
2023-04-17T09:39:25.244Z,6.78
2023-04-17T09:42:10.918Z,7.10
2023-04-17T09:44:38.049Z,6.80
2023-04-17T09:47:05.272Z,7.22
2023-04-17T09:49:52.668Z,7.18
2023-04-17T09:52:21.508Z,8.40
2023-04-17T09:54:49.360Z,5.80
2023-04-17T09:57:16.636Z,13.85
2023-04-17T09:59:50.140Z,10.80
2023-04-17T10:02:18.250Z,9.27
2023-04-17T10:04:46.069Z,9.60
2023-04-17T10:07:13.326Z,9.40
2023-04-17T10:09:45.565Z,9.18
2023-04-17T10:12:17.801Z,7.97
2023-04-17T10:14:48.872Z,8.13
2023-04-17T10:17:26.288Z,9.73
2023-04-17T10:19:53.368Z,7.70
2023-04-17T10:22:20.367Z,11.40
2023-04-17T10:25:13.827Z,6.63
2023-04-17T10:27:41.425Z,9.90
2023-04-17T10:30:15.519Z,7.95
2023-04-17T10:32:46.486Z,9.15
2023-04-17T10:35:16.618Z,8.50
2023-04-17T10:37:52.455Z,12.48
2023-04-17T10:40:26.096Z,8.82
2023-04-17T10:43:22.392Z,8.90
2023-04-17T10:46:12.210Z,8.25
2023-04-17T10:48:50.748Z,8.93
2023-04-17T10:51:24.679Z,8.90
2023-04-17T10:53:58.253Z,11.60
2023-04-17T10:56:46.407Z,12.48
2023-04-17T10:59:14.886Z,9.10
2023-04-17T11:01:48.255Z,8.45
2023-04-17T11:04:28.450Z,8.75
2023-04-17T11:06:55.906Z,9.35
2023-04-17T11:09:24.089Z,11.07
2023-04-17T11:11:51.073Z,13.63
2023-04-17T11:14:20.597Z,11.57
2023-04-17T11:16:49.077Z,11.35
2023-04-17T11:19:25.988Z,12.52
2023-04-17T11:21:54.282Z,7.90
2023-04-17T11:24:24.983Z,10.30
2023-04-17T11:26:51.967Z,8.68
2023-04-17T11:29:20.519Z,9.70
2023-04-17T11:31:48.774Z,8.95
2023-04-17T11:34:16.394Z,9.50
2023-04-17T11:36:59.394Z,10.43
2023-04-17T11:39:28.953Z,10.23
2023-04-17T11:41:57.301Z,15.68
2023-04-17T11:44:24.592Z,17.65
2023-04-17T11:46:55.328Z,12.70
2023-04-17T11:49:29.001Z,11.95
2023-04-17T11:51:58.649Z,11.35
2023-04-17T11:54:32.146Z,11.35
2023-04-17T11:56:59.193Z,8.55
2023-04-17T11:59:52.592Z,9.98
2023-04-17T12:02:19.770Z,10.63
2023-04-17T12:04:47.273Z,10.98
2023-04-17T12:07:21.677Z,10.27
2023-04-17T12:09:55.742Z,7.13
2023-04-17T12:12:23.075Z,8.93
2023-04-17T12:14:50.399Z,10.98
2023-04-17T12:17:17.478Z,9.50
2023-04-17T12:19:45.380Z,8.45
2023-04-17T12:22:12.570Z,11.07
2023-04-17T12:24:39.653Z,13.52
2023-04-17T12:27:06.701Z,10.85
2023-04-17T12:29:43.707Z,9.90
2023-04-17T12:32:12.391Z,10.02
2023-04-17T12:34:39.669Z,11.27
2023-04-17T12:37:06.709Z,14.20
2023-04-17T12:39:33.684Z,39.30
2023-04-17T12:42:01.293Z,9.65
2023-04-17T12:44:28.350Z,11.48
2023-04-17T12:46:55.351Z,13.82
2023-04-17T12:49:23.668Z,10.75
2023-04-17T12:51:51.731Z,11.48
2023-04-17T12:54:19.288Z,9.93
2023-04-17T12:56:46.416Z,11.80
2023-04-17T12:59:13.418Z,8.93
2023-04-17T13:01:40.683Z,11.30
2023-04-17T13:04:08.209Z,14.65
2023-04-17T13:06:35.582Z,12.43
2023-04-17T13:09:02.703Z,11.85
2023-04-17T13:11:29.828Z,13.43
2023-04-17T13:13:56.955Z,11.77
2023-04-17T13:16:24.071Z,23.70
2023-04-17T13:18:51.195Z,13.57
2023-04-17T13:21:18.211Z,14.63
2023-04-17T13:23:45.189Z,31.17
2023-04-17T13:26:12.213Z,33.03
2023-04-17T13:28:39.920Z,22.02
2023-04-17T13:31:07.196Z,17.10
2023-04-17T13:33:34.735Z,16.13
2023-04-17T13:36:01.917Z,10.63
2023-04-17T13:38:30.414Z,10.80
2023-04-17T13:40:57.490Z,10.77
2023-04-17T13:43:24.666Z,11.10
2023-04-17T13:45:54.189Z,17.25
2023-04-17T13:48:22.793Z,10.02
2023-04-17T13:50:50.128Z,14.18
2023-04-17T13:53:17.078Z,11.18
2023-04-17T13:55:44.056Z,13.45
2023-04-17T13:58:11.687Z,8.93
2023-04-17T14:00:38.683Z,11.35
2023-04-17T14:03:06.092Z,13.73
2023-04-17T14:05:33.218Z,10.25
2023-04-17T14:08:01.659Z,11.43
2023-04-17T14:10:28.775Z,9.77
2023-04-17T14:12:55.698Z,10.57
2023-04-17T14:15:22.583Z,10.63
2023-04-17T14:17:49.768Z,9.70
2023-04-17T14:20:18.032Z,14.77
2023-04-17T14:22:45.630Z,12.00
2023-04-17T14:25:16.122Z,18.02
2023-04-17T14:27:43.252Z,16.10
2023-04-17T14:30:10.919Z,11.52
2023-04-17T14:32:40.680Z,9.68
2023-04-17T14:35:08.272Z,9.52
2023-04-17T14:37:35.318Z,14.10
2023-04-17T14:40:02.465Z,11.85
2023-04-17T14:42:32.684Z,18.45
2023-04-17T14:45:03.092Z,10.25
2023-04-17T14:47:31.494Z,10.75
2023-04-17T14:49:58.463Z,8.25
2023-04-17T14:52:25.520Z,10.00
2023-04-17T14:54:52.532Z,11.32
2023-04-17T14:57:19.544Z,14.32
2023-04-17T14:59:47.188Z,17.77
2023-04-17T15:02:14.333Z,13.43
2023-04-17T15:04:42.563Z,14.10
2023-04-17T15:07:09.659Z,12.07
2023-04-17T15:09:36.654Z,11.93
2023-04-17T15:12:03.828Z,8.15
2023-04-17T15:14:31.035Z,8.65
2023-04-17T15:16:59.157Z,9.93
2023-04-17T15:19:26.323Z,16.90
2023-04-17T15:21:53.395Z,9.63
2023-04-17T15:24:20.386Z,10.45
2023-04-17T15:26:47.348Z,7.65
2023-04-17T15:29:14.480Z,11.10
2023-04-17T15:31:41.803Z,6.80
2023-04-17T15:34:08.892Z,9.73
2023-04-17T15:36:35.891Z,10.43
2023-04-17T15:39:02.907Z,10.05
2023-04-17T15:41:29.878Z,9.68
2023-04-17T15:43:56.861Z,9.68
2023-04-17T15:46:23.982Z,10.15
2023-04-17T15:49:05.009Z,11.55
2023-04-17T15:51:35.235Z,7.03
2023-04-17T15:54:02.252Z,6.40
2023-04-17T15:56:29.220Z,10.23
2023-04-17T15:58:56.195Z,7.80
2023-04-17T16:01:23.405Z,7.68
2023-04-17T16:03:50.687Z,10.75
2023-04-17T16:06:17.786Z,13.32
2023-04-17T16:08:44.898Z,11.70
2023-04-17T16:11:12.633Z,12.45
2023-04-17T16:13:39.651Z,11.77
2023-04-17T16:16:06.939Z,11.05
2023-04-17T16:18:34.093Z,13.43
2023-04-17T16:21:01.168Z,10.57
2023-04-17T16:23:28.292Z,10.77
2023-04-17T16:25:55.480Z,10.05
2023-04-17T16:28:23.018Z,9.23
2023-04-17T16:30:50.004Z,12.23
2023-04-17T16:33:17.094Z,13.35
2023-04-17T16:35:44.063Z,14.32
2023-04-17T16:38:11.119Z,16.58
2023-04-17T16:40:38.101Z,16.65
2023-04-17T16:43:05.169Z,18.13
2023-04-17T16:45:32.400Z,15.20
2023-04-17T16:47:59.686Z,12.32
2023-04-17T16:50:26.770Z,17.38
2023-04-17T16:52:53.779Z,13.38
2023-04-17T16:55:20.967Z,15.10
2023-04-17T16:57:48.088Z,13.07
2023-04-17T17:00:15.407Z,12.10
2023-04-17T17:02:42.603Z,12.10
2023-04-17T17:05:09.875Z,13.35
2023-04-17T17:07:36.802Z,9.60
2023-04-17T17:10:04.038Z,10.15
2023-04-17T17:12:31.225Z,9.93
2023-04-17T17:14:59.476Z,9.57
2023-04-17T17:17:26.431Z,8.13
2023-04-17T17:19:53.467Z,11.90
2023-04-17T17:22:20.616Z,12.60
2023-04-17T17:24:47.568Z,13.20
2023-04-17T17:27:15.414Z,12.95
2023-04-17T17:29:43.594Z,11.63
2023-04-17T17:32:11.686Z,9.23
2023-04-17T17:34:39.233Z,11.82
2023-04-17T17:37:09.080Z,8.38
2023-04-17T17:39:40.328Z,12.85
2023-04-17T17:42:11.570Z,14.35
2023-04-17T17:44:42.565Z,13.60
2023-04-17T17:47:13.742Z,14.60
2023-04-17T17:49:44.876Z,18.08
2023-04-17T17:52:15.929Z,11.70
2023-04-17T17:54:47.208Z,16.20
2023-04-17T17:57:18.032Z,17.90
2023-04-17T17:59:49.063Z,15.20
2023-04-17T18:02:20.135Z,16.80
2023-04-17T18:04:50.775Z,16.00
2023-04-17T18:07:21.697Z,13.55
2023-04-17T18:09:50.881Z,13.77
2023-04-17T18:12:17.958Z,12.63
2023-04-17T18:14:48.006Z,16.63
2023-04-17T18:17:18.587Z,14.73
2023-04-17T18:19:49.207Z,11.38
2023-04-17T18:22:17.584Z,14.18
2023-04-17T18:24:44.590Z,16.42
2023-04-17T18:27:11.607Z,12.85
2023-04-17T18:29:38.575Z,15.52
2023-04-17T18:32:05.664Z,15.52
2023-04-17T18:34:33.018Z,21.52
2023-04-17T18:37:00.591Z,19.48
2023-04-17T18:39:27.772Z,21.98
2023-04-17T18:41:54.821Z,24.38
2023-04-17T18:44:22.393Z,24.63
2023-04-17T18:46:50.080Z,26.48
2023-04-17T18:49:17.210Z,32.70
2023-04-17T18:51:48.410Z,32.67
2023-04-17T18:54:17.463Z,27.90
2023-04-17T18:56:45.867Z,30.40
2023-04-17T18:59:14.302Z,31.85
2023-04-17T19:01:42.934Z,32.60
2023-04-17T19:04:09.935Z,29.30
2023-04-17T19:06:37.131Z,27.17
2023-04-17T19:09:04.280Z,31.15
2023-04-17T19:11:32.005Z,41.85
2023-04-17T19:13:59.068Z,33.90
2023-04-17T19:16:26.095Z,35.03
2023-04-17T19:18:53.235Z,36.63
2023-04-17T19:21:20.287Z,36.40
2023-04-17T19:23:48.004Z,36.50
2023-04-17T19:26:17.755Z,34.17
2023-04-17T19:28:44.746Z,33.22
2023-04-17T19:31:11.919Z,30.20
2023-04-17T19:33:39.094Z,23.25
2023-04-17T19:36:06.206Z,24.42
2023-04-17T19:38:33.215Z,25.33
2023-04-17T19:41:19.155Z,21.23
2023-04-17T19:43:49.909Z,22.55
2023-04-17T19:46:18.278Z,20.83
2023-04-17T19:48:45.582Z,20.40
2023-04-17T19:51:12.971Z,17.50
2023-04-17T19:53:42.096Z,18.08
2023-04-17T19:56:09.607Z,17.92
2023-04-17T19:58:37.175Z,19.48
2023-04-17T20:01:04.341Z,24.48
2023-04-17T20:03:32.449Z,41.05
2023-04-17T20:06:00.413Z,39.13
2023-04-17T20:08:27.729Z,41.30
2023-04-17T20:10:54.838Z,40.83
2023-04-17T20:13:22.041Z,28.00
2023-04-17T20:15:49.085Z,35.95
2023-04-17T20:18:16.294Z,39.65
2023-04-17T20:20:43.253Z,41.28
2023-04-17T20:23:10.164Z,28.20
2023-04-17T20:25:37.238Z,27.88
2023-04-17T20:28:04.390Z,19.92
2023-04-17T20:30:31.496Z,17.75
2023-04-17T20:32:58.599Z,16.25
2023-04-17T20:35:25.811Z,14.75
2023-04-17T20:37:53.049Z,17.33
2023-04-17T20:40:20.342Z,18.60
2023-04-17T20:42:47.669Z,14.30
2023-04-17T20:45:14.642Z,18.20
2023-04-17T20:47:55.757Z,15.02
2023-04-17T20:50:24.375Z,14.23
2023-04-17T20:52:51.568Z,19.40
2023-04-17T20:55:20.002Z,14.13
2023-04-17T20:57:48.079Z,15.32
2023-04-17T21:00:15.906Z,15.90
2023-04-17T21:02:43.881Z,18.98
2023-04-17T21:05:11.083Z,17.67
2023-04-17T21:07:38.102Z,22.73
2023-04-17T21:10:05.573Z,22.50
2023-04-17T21:12:35.320Z,16.08
2023-04-17T21:15:02.652Z,18.95
2023-04-17T21:17:32.687Z,14.77
2023-04-17T21:19:59.758Z,13.45
2023-04-17T21:22:26.799Z,15.93
2023-04-17T21:24:53.688Z,18.27
2023-04-17T21:27:20.735Z,18.30
2023-04-17T21:29:47.702Z,13.00
2023-04-17T21:32:14.767Z,23.27
2023-04-17T21:34:41.790Z,13.85
2023-04-17T21:37:08.743Z,16.73
2023-04-17T21:39:36.041Z,19.00
2023-04-17T21:42:03.104Z,15.23
2023-04-17T21:44:30.092Z,15.45
2023-04-17T21:46:57.127Z,19.58
2023-04-17T21:49:24.329Z,15.80
2023-04-17T21:51:51.401Z,16.80
2023-04-17T21:54:18.494Z,14.93
2023-04-17T21:56:45.572Z,17.17
2023-04-17T21:59:12.532Z,16.90
2023-04-17T22:01:39.692Z,15.75
2023-04-17T22:04:06.757Z,16.50
2023-04-17T22:06:37.008Z,16.38
2023-04-17T22:09:07.279Z,15.57
2023-04-17T22:11:34.500Z,15.27
2023-04-17T22:14:01.543Z,18.35
2023-04-17T22:16:28.632Z,15.07
2023-04-17T22:18:55.730Z,15.02
2023-04-17T22:21:22.695Z,16.98
2023-04-17T22:23:49.651Z,18.23
2023-04-17T22:26:16.682Z,16.77
2023-04-17T22:28:43.811Z,20.17
2023-04-17T22:31:11.146Z,18.33
2023-04-17T22:33:38.156Z,18.35
2023-04-17T22:36:05.262Z,23.67
2023-04-17T22:38:32.177Z,20.65
2023-04-17T22:40:59.622Z,21.58
2023-04-17T22:43:26.588Z,21.00
2023-04-17T22:45:53.668Z,22.27
2023-04-17T22:48:23.871Z,23.85
2023-04-17T22:50:51.752Z,20.58
2023-04-17T22:53:18.904Z,22.30
2023-04-17T22:55:46.213Z,22.75
2023-04-17T22:58:13.236Z,21.38
2023-04-17T23:00:40.155Z,20.73
2023-04-17T23:03:07.642Z,21.05
2023-04-17T23:05:34.802Z,20.08
2023-04-17T23:08:01.939Z,20.65
2023-04-17T23:10:28.917Z,19.25
2023-04-17T23:12:56.015Z,20.92
2023-04-17T23:15:23.143Z,24.52
2023-04-17T23:17:50.348Z,18.92
2023-04-17T23:20:17.583Z,21.30
2023-04-17T23:22:44.616Z,20.35
2023-04-17T23:25:11.676Z,19.05
2023-04-17T23:27:38.822Z,20.63
2023-04-17T23:30:06.536Z,21.55
2023-04-17T23:32:33.562Z,22.70
2023-04-17T23:35:00.587Z,18.88
2023-04-17T23:37:27.598Z,25.08
2023-04-17T23:39:54.656Z,23.80
2023-04-17T23:42:21.819Z,19.52
2023-04-17T23:44:48.719Z,21.52
2023-04-17T23:47:16.129Z,19.67
2023-04-17T23:49:43.102Z,20.73
2023-04-17T23:52:10.300Z,20.83
2023-04-17T23:54:37.245Z,20.33
2023-04-17T23:57:04.566Z,22.63
2023-04-17T23:59:31.690Z,22.75
